Time;durP1;ratioP1;P1;durP2;ratioP2;P2;SDS_P1;SDS_P2;PMS_P1;PMS_P2;Temp;Humidity;BMP_temperature;BMP_pressure;BME280_temperature;BME280_humidity;BME280_pressure;Samples;Min_cycle;Max_cycle;Signal;HPM_P1;HPM_P2
2023/12/18 00:00:05;;;;;;;19.13;13.63;;;;;;;0.78;72.29;95180.88;514742;28;2444;-69
2023/12/18 00:00:21;;;;;;;19.65;14.10;;;;;;;0.68;72.18;95161.06;514358;28;2680;-69
2023/12/18 00:00:37;;;;;;;18.63;14.03;;;;;;;0.81;73.01;95180.00;514598;28;3179;-68
2023/12/18 00:00:52;;;;;;;19.73;14.68;;;;;;;0.82;72.59;95178.06;514371;28;3485;-69
2023/12/18 00:01:08;;;;;;;20.30;15.03;;;;;;;0.84;72.98;95179.13;514327;28;2551;-68
2023/12/18 00:01:24;;;;;;;20.58;14.48;;;;;;;0.83;73.07;95177.59;514979;28;2991;-69
2023/12/18 00:01:40;;;;;;;20.73;15.07;;;;;;;0.84;72.50;95172.94;514900;28;3375;-69
2023/12/18 00:01:55;;;;;;;19.70;14.93;;;;;;;0.85;72.49;95174.44;515418;28;2483;-69
2023/12/18 00:02:11;;;;;;;19.02;14.82;;;;;;;0.84;72.61;95176.41;514959;28;3282;-68
2023/12/18 00:02:26;;;;;;;18.33;14.67;;;;;;;0.83;72.84;95177.59;514967;28;1879;-68
2023/12/18 00:02:42;;;;;;;19.48;14.07;;;;;;;0.88;72.50;95176.28;515324;28;3091;-68
2023/12/18 00:02:57;;;;;;;21.23;14.80;;;;;;;0.90;72.73;95177.34;515133;28;2044;-68
2023/12/18 00:03:13;;;;;;;21.17;15.00;;;;;;;0.90;73.04;95174.63;514319;28;2138;-68
2023/12/18 00:03:29;;;;;;;20.27;14.17;;;;;;;0.92;73.07;95176.88;515310;28;1808;-69
2023/12/18 00:03:45;;;;;;;22.33;14.10;;;;;;;0.93;72.83;95176.47;514939;28;2319;-69
2023/12/18 00:04:03;;;;;;;21.63;14.30;;;;;;;0.92;72.56;95166.00;515420;28;3172;-68
2023/12/18 00:04:19;;;;;;;20.80;14.25;;;;;;;0.92;72.51;95172.22;514809;28;3301;-68
2023/12/18 00:04:35;;;;;;;22.20;14.50;;;;;;;0.92;72.50;95169.50;515466;28;1973;-69
2023/12/18 00:04:50;;;;;;;22.23;15.00;;;;;;;0.93;72.21;95175.69;515358;28;2461;-68
2023/12/18 00:05:06;;;;;;;21.50;14.53;;;;;;;0.93;72.55;95173.75;514950;28;2271;-70
2023/12/18 00:05:21;;;;;;;20.33;14.60;;;;;;;0.90;72.61;95169.19;514662;28;3922;-69
2023/12/18 00:05:37;;;;;;;19.02;14.85;;;;;;;0.89;72.71;95167.66;515376;28;3012;-69
2023/12/18 00:05:52;;;;;;;21.00;14.67;;;;;;;0.82;72.21;95172.63;515087;28;2473;-68
2023/12/18 00:06:08;;;;;;;19.35;14.18;;;;;;;0.79;72.44;95168.81;515260;28;2380;-68
2023/12/18 00:06:23;;;;;;;19.17;14.57;;;;;;;0.75;72.43;95170.91;515231;28;1865;-69
2023/12/18 00:06:38;;;;;;;22.30;15.23;;;;;;;0.75;73.12;95170.91;515764;28;1862;-68
2023/12/18 00:06:54;;;;;;;21.30;15.13;;;;;;;0.75;72.38;95168.19;515617;28;3127;-68
2023/12/18 00:07:09;;;;;;;21.87;15.27;;;;;;;0.77;72.76;95168.50;515173;28;3031;-68
2023/12/18 00:07:26;;;;;;;24.33;15.70;;;;;;;0.76;72.43;95169.69;515253;28;2240;-69
2023/12/18 00:07:42;;;;;;;25.42;16.83;;;;;;;0.79;72.50;95174.25;515454;28;1835;-68
2023/12/18 00:07:57;;;;;;;23.83;16.83;;;;;;;0.79;72.57;95171.53;515494;28;2038;-68
2023/12/18 00:08:13;;;;;;;23.52;16.85;;;;;;;0.78;72.46;95175.44;515452;28;1612;-69
2023/12/18 00:08:28;;;;;;;24.13;16.67;;;;;;;0.78;72.93;95170.78;515694;28;2994;-70
2023/12/18 00:08:43;;;;;;;21.80;15.45;;;;;;;0.78;72.26;95175.44;515791;28;1613;-68
2023/12/18 00:08:59;;;;;;;20.30;15.43;;;;;;;0.78;72.54;95167.28;515106;28;1819;-68
2023/12/18 00:09:14;;;;;;;21.92;15.88;;;;;;;0.78;72.88;95173.50;514962;28;2380;-68
2023/12/18 00:09:30;;;;;;;23.63;15.27;;;;;;;0.79;72.66;95168.81;516204;28;2393;-68
2023/12/18 00:09:45;;;;;;;26.23;15.43;;;;;;;0.82;72.70;95167.94;515943;28;2940;-68
2023/12/18 00:10:01;;;;;;;26.27;16.08;;;;;;;0.81;72.71;95171.84;515596;28;2578;-68
2023/12/18 00:10:16;;;;;;;24.37;16.47;;;;;;;0.83;72.33;95172.16;515138;28;3498;-69
2023/12/18 00:10:32;;;;;;;25.52;17.15;;;;;;;0.84;72.39;95176.41;515215;28;1584;-68
2023/12/18 00:10:47;;;;;;;24.63;16.37;;;;;;;0.83;72.25;95172.16;515735;28;1846;-69
2023/12/18 00:11:03;;;;;;;24.27;16.13;;;;;;;0.85;72.78;95169.00;515291;28;2027;-68
2023/12/18 00:11:18;;;;;;;26.87;16.77;;;;;;;0.84;72.61;95173.69;514980;28;2017;-69
2023/12/18 00:11:34;;;;;;;28.20;17.38;;;;;;;0.84;73.05;95176.41;515791;28;3267;-68
2023/12/18 00:11:49;;;;;;;31.53;18.37;;;;;;;0.84;73.09;95175.66;516176;28;1593;-69
2023/12/18 00:12:05;;;;;;;30.55;17.70;;;;;;;0.83;72.43;95169.44;515922;28;2074;-69
2023/12/18 00:12:21;;;;;;;24.60;16.90;;;;;;;0.81;72.89;95179.25;515986;28;1943;-69
2023/12/18 00:12:36;;;;;;;22.73;16.53;;;;;;;0.81;72.92;95174.56;515990;28;1798;-69
2023/12/18 00:12:52;;;;;;;23.42;16.23;;;;;;;0.83;72.92;95174.13;516059;28;2948;-68
2023/12/18 00:13:07;;;;;;;23.02;15.38;;;;;;;0.84;72.57;95178.38;515764;28;4185;-68
2023/12/18 00:13:23;;;;;;;20.57;14.70;;;;;;;0.84;73.05;95175.66;515390;28;2378;-68
2023/12/18 00:13:38;;;;;;;19.70;14.68;;;;;;;0.85;72.99;95172.47;515816;28;1802;-68
2023/12/18 00:13:54;;;;;;;20.97;13.93;;;;;;;0.86;72.82;95171.28;515902;28;3366;-68
2023/12/18 00:14:09;;;;;;;21.40;14.30;;;;;;;0.88;72.42;95177.03;515291;28;2680;-68
2023/12/18 00:14:24;;;;;;;21.13;15.10;;;;;;;0.88;73.13;95171.59;515724;28;1546;-68
2023/12/18 00:14:40;;;;;;;21.87;15.13;;;;;;;0.90;72.34;95176.59;515444;28;3247;-68
2023/12/18 00:14:56;;;;;;;22.52;15.05;;;;;;;0.91;72.87;95178.84;515532;28;2359;-68
2023/12/18 00:15:12;;;;;;;23.67;15.68;;;;;;;0.90;72.59;95177.34;514690;28;2500;-69
2023/12/18 00:15:27;;;;;;;22.42;15.25;;;;;;;0.93;72.83;95168.31;515497;28;2352;-68
2023/12/18 00:15:45;;;;;;;21.33;14.97;;;;;;;0.91;72.63;95164.50;515668;28;4069;-68
2023/12/18 00:16:01;;;;;;;21.17;15.27;;;;;;;0.89;72.44;95172.34;516043;28;3305;-68
2023/12/18 00:16:17;;;;;;;20.13;14.38;;;;;;;0.81;72.51;95180.00;514764;28;1827;-68
2023/12/18 00:16:32;;;;;;;16.92;12.98;;;;;;;0.78;72.89;95172.72;515356;28;2432;-68
2023/12/18 00:16:47;;;;;;;17.80;13.07;;;;;;;0.77;72.28;95174.72;515611;28;1897;-68
2023/12/18 00:17:03;;;;;;;20.07;14.07;;;;;;;0.78;72.84;95170.00;516005;28;2938;-69
2023/12/18 00:17:19;;;;;;;17.73;13.40;;;;;;;0.80;73.09;95173.06;515043;28;3060;-68
2023/12/18 00:17:34;;;;;;;17.73;13.43;;;;;;;0.81;72.68;95168.38;515289;28;1881;-69
2023/12/18 00:17:49;;;;;;;20.05;13.90;;;;;;;0.83;72.61;95168.69;515459;28;2143;-68
2023/12/18 00:18:05;;;;;;;21.27;14.27;;;;;;;0.84;72.91;95170.22;515657;28;2378;-69
2023/12/18 00:18:20;;;;;;;21.52;14.68;;;;;;;0.84;73.17;95173.69;515271;28;2280;-68
2023/12/18 00:18:36;;;;;;;22.50;14.97;;;;;;;0.88;73.23;95176.28;515602;28;3111;-69
2023/12/18 00:18:51;;;;;;;23.55;15.55;;;;;;;0.89;72.84;95169.66;515553;28;2406;-68
2023/12/18 00:19:07;;;;;;;21.70;15.10;;;;;;;0.91;72.65;95172.69;515810;28;2235;-68
2023/12/18 00:19:23;;;;;;;20.73;14.95;;;;;;;0.78;72.47;95150.97;515091;28;2067;-69
2023/12/18 00:19:38;;;;;;;20.75;14.95;;;;;;;0.94;73.05;95169.03;515643;28;3081;-68
2023/12/18 00:19:54;;;;;;;20.23;14.30;;;;;;;0.95;72.79;95176.78;515282;28;2699;-68
2023/12/18 00:20:10;;;;;;;20.85;14.48;;;;;;;0.93;72.59;95172.97;515931;28;1603;-68
2023/12/18 00:20:25;;;;;;;22.67;15.88;;;;;;;0.93;73.02;95178.44;514790;28;3601;-68
2023/12/18 00:20:41;;;;;;;22.33;15.93;;;;;;;0.92;72.59;95183.09;516095;28;2454;-68
2023/12/18 00:20:56;;;;;;;20.73;14.43;;;;;;;0.92;72.27;95177.66;515603;28;3366;-68
2023/12/18 00:21:13;;;;;;;20.30;13.77;;;;;;;0.91;72.51;95178.13;515820;28;2055;-68
2023/12/18 00:21:28;;;;;;;20.85;14.43;;;;;;;0.91;72.68;95175.38;515564;28;1936;-70
2023/12/18 00:21:44;;;;;;;21.33;15.23;;;;;;;0.91;72.02;95181.56;516031;28;3257;-68
2023/12/18 00:21:59;;;;;;;21.38;15.15;;;;;;;0.93;72.63;95181.13;515182;28;2332;-68
2023/12/18 00:22:14;;;;;;;22.57;14.93;;;;;;;0.93;72.62;95181.91;516140;28;3464;-68
2023/12/18 00:22:30;;;;;;;22.77;14.88;;;;;;;0.93;72.52;95178.44;515397;28;2388;-69
2023/12/18 00:22:45;;;;;;;23.93;15.53;;;;;;;0.93;72.30;95179.19;516537;28;1787;-68
2023/12/18 00:23:01;;;;;;;22.33;15.53;;;;;;;0.94;72.59;95177.97;516069;28;3783;-68
2023/12/18 00:23:17;;;;;;;20.92;15.15;;;;;;;0.95;72.69;95176.78;515264;28;3579;-68
2023/12/18 00:23:32;;;;;;;23.27;15.73;;;;;;;0.97;72.48;95179.03;515605;28;2491;-68
2023/12/18 00:23:48;;;;;;;23.93;16.30;;;;;;;0.96;72.69;95175.56;515964;28;2945;-70
2023/12/18 00:24:04;;;;;;;23.57;15.97;;;;;;;0.98;72.86;95175.88;514719;28;3057;-68
2023/12/18 00:24:19;;;;;;;22.63;15.35;;;;;;;0.98;72.48;95177.81;515366;28;3042;-68
2023/12/18 00:24:34;;;;;;;22.50;15.10;;;;;;;0.97;72.23;95173.59;515753;28;3267;-68
2023/12/18 00:24:50;;;;;;;24.95;15.60;;;;;;;0.97;72.32;95173.59;516096;28;2595;-68
2023/12/18 00:25:06;;;;;;;25.17;16.10;;;;;;;0.98;72.25;95177.81;515481;28;1872;-69
2023/12/18 00:25:21;;;;;;;22.88;15.88;;;;;;;0.98;72.11;95175.09;515287;28;1901;-68
2023/12/18 00:25:38;;;;;;;23.93;16.77;;;;;;;0.96;72.02;95183.72;516151;28;3095;-69
2023/12/18 00:25:53;;;;;;;27.80;18.00;;;;;;;0.95;72.28;95176.78;515875;28;1895;-69
2023/12/18 00:26:09;;;;;;;28.70;17.97;;;;;;;0.96;72.54;95177.50;515375;28;1830;-68
2023/12/18 00:26:24;;;;;;;30.13;18.40;;;;;;;0.97;72.34;95173.59;515960;28;1710;-68
2023/12/18 00:26:39;;;;;;;28.20;18.10;;;;;;;0.96;72.33;95170.13;515662;28;3405;-69
2023/12/18 00:26:55;;;;;;;27.25;17.60;;;;;;;0.97;72.31;95179.03;515845;28;1592;-69
2023/12/18 00:27:10;;;;;;;26.83;17.17;;;;;;;0.97;72.00;95173.59;515679;28;2001;-68
2023/12/18 00:27:26;;;;;;;24.13;16.38;;;;;;;0.97;72.72;95179.81;514816;28;2534;-68
2023/12/18 00:27:42;;;;;;;25.67;16.70;;;;;;;0.98;72.28;95177.81;515855;28;2929;-69
2023/12/18 00:27:57;;;;;;;24.33;16.40;;;;;;;0.98;72.39;95178.59;515153;28;3046;-69
2023/12/18 00:28:13;;;;;;;23.03;15.77;;;;;;;0.99;72.22;95182.84;515309;28;1507;-68
2023/12/18 00:28:28;;;;;;;24.42;15.55;;;;;;;0.99;72.19;95177.41;515619;28;3192;-69
2023/12/18 00:28:43;;;;;;;23.27;15.37;;;;;;;1.01;72.40;95175.00;515463;28;2986;-68
2023/12/18 00:28:59;;;;;;;24.70;16.10;;;;;;;1.01;72.31;95172.28;515321;28;3121;-68
2023/12/18 00:29:14;;;;;;;26.03;16.83;;;;;;;1.02;72.54;95175.75;515374;28;2106;-69
2023/12/18 00:29:30;;;;;;;23.45;15.50;;;;;;;1.04;72.19;95184.22;515654;28;3463;-69
2023/12/18 00:29:45;;;;;;;22.93;15.10;;;;;;;1.04;72.05;95181.50;516193;28;2590;-68
2023/12/18 00:30:01;;;;;;;22.00;15.18;;;;;;;1.05;72.20;95178.34;515104;28;3097;-68
2023/12/18 00:30:16;;;;;;;20.50;14.17;;;;;;;1.04;72.11;95176.81;514916;28;1827;-69
2023/12/18 00:30:31;;;;;;;20.47;13.77;;;;;;;1.04;72.00;95176.81;515304;28;2374;-68
2023/12/18 00:30:48;;;;;;;21.20;14.13;;;;;;;1.02;71.97;95181.94;515699;28;1842;-69
2023/12/18 00:31:03;;;;;;;21.02;13.95;;;;;;;1.03;72.40;95177.25;514930;28;1603;-69
2023/12/18 00:31:18;;;;;;;21.40;13.23;;;;;;;1.04;72.38;95181.50;515311;28;3007;-69
2023/12/18 00:31:34;;;;;;;20.65;13.02;;;;;;;1.05;72.28;95180.28;515354;28;3075;-69
2023/12/18 00:31:49;;;;;;;19.07;12.77;;;;;;;1.06;72.00;95181.81;515819;28;2044;-69
2023/12/18 00:32:06;;;;;;;16.80;12.23;;;;;;;1.06;72.03;95182.56;514816;28;2943;-68
2023/12/18 00:32:21;;;;;;;16.10;12.38;;;;;;;1.06;72.41;95181.81;515329;28;2344;-68
2023/12/18 00:32:37;;;;;;;19.02;12.68;;;;;;;1.07;72.32;95183.31;514786;28;2125;-68
2023/12/18 00:32:52;;;;;;;20.23;12.70;;;;;;;1.06;72.43;95177.13;515458;28;2217;-68
2023/12/18 00:33:08;;;;;;;19.80;13.30;;;;;;;1.06;72.34;95182.56;515161;28;2227;-68
2023/12/18 00:33:23;;;;;;;19.57;13.13;;;;;;;1.06;72.19;95182.56;514890;28;1836;-68
2023/12/18 00:33:39;;;;;;;18.48;12.95;;;;;;;1.05;72.10;95169.41;515287;28;3335;-68
2023/12/18 00:33:54;;;;;;;19.63;13.67;;;;;;;1.06;72.25;95179.09;515382;28;3056;-68
2023/12/18 00:34:10;;;;;;;20.50;14.40;;;;;;;1.06;72.21;95187.25;514107;28;2299;-68
2023/12/18 00:34:25;;;;;;;20.07;14.20;;;;;;;1.08;72.15;95173.97;515275;28;1825;-68
2023/12/18 00:34:41;;;;;;;19.23;13.70;;;;;;;1.06;72.06;95174.41;515437;28;1981;-68
2023/12/18 00:34:56;;;;;;;19.93;13.90;;;;;;;1.10;72.51;95177.00;515720;28;1989;-68
2023/12/18 00:35:12;;;;;;;23.90;15.15;;;;;;;1.10;72.29;95171.56;515226;28;3011;-68
2023/12/18 00:35:28;;;;;;;23.47;15.33;;;;;;;1.11;72.06;95173.06;515578;28;2098;-68
2023/12/18 00:35:43;;;;;;;21.50;14.68;;;;;;;1.13;71.77;95170.66;515616;28;1855;-68
2023/12/18 00:35:59;;;;;;;20.65;14.27;;;;;;;1.13;71.76;95173.38;515604;28;1927;-68
2023/12/18 00:36:15;;;;;;;20.27;14.10;;;;;;;1.14;71.65;95167.50;514109;28;2680;-68
2023/12/18 00:36:30;;;;;;;22.40;14.57;;;;;;;1.13;71.29;95167.94;515264;28;1880;-68
2023/12/18 00:36:45;;;;;;;23.73;15.55;;;;;;;1.13;71.83;95170.66;515203;28;3345;-68
2023/12/18 00:37:01;;;;;;;26.37;16.30;;;;;;;1.13;71.57;95171.41;515365;28;2976;-69
2023/12/18 00:37:16;;;;;;;26.02;16.60;;;;;;;1.10;71.62;95157.97;514596;28;2917;-68
2023/12/18 00:37:32;;;;;;;24.63;16.80;;;;;;;1.13;71.21;95165.97;515672;28;3880;-68
2023/12/18 00:37:47;;;;;;;23.03;15.53;;;;;;;1.16;71.64;95167.06;515322;28;1880;-68
2023/12/18 00:38:03;;;;;;;21.67;13.80;;;;;;;1.16;71.52;95170.53;515056;28;2876;-68
2023/12/18 00:38:18;;;;;;;20.30;14.13;;;;;;;1.18;71.27;95167.38;514073;28;3405;-68
2023/12/18 00:38:34;;;;;;;20.83;15.57;;;;;;;1.18;70.93;95159.97;514958;28;2014;-68
2023/12/18 00:38:50;;;;;;;20.83;14.87;;;;;;;1.19;71.29;95164.19;514064;28;3191;-68
2023/12/18 00:39:05;;;;;;;20.40;13.88;;;;;;;1.20;71.18;95165.72;515545;28;2271;-68
2023/12/18 00:39:21;;;;;;;21.40;13.80;;;;;;;1.21;71.45;95167.22;515131;28;3146;-68
2023/12/18 00:39:36;;;;;;;21.45;13.50;;;;;;;1.22;70.84;95160.59;515433;28;2430;-68
2023/12/18 00:39:52;;;;;;;19.80;13.60;;;;;;;1.22;70.81;95167.97;515016;28;3526;-68
2023/12/18 00:40:08;;;;;;;18.10;13.13;;;;;;;1.21;71.13;95166.47;515068;28;1902;-68
2023/12/18 00:40:23;;;;;;;20.65;14.35;;;;;;;1.22;71.07;95160.59;514000;28;1751;-68
2023/12/18 00:40:38;;;;;;;23.10;15.68;;;;;;;1.22;70.68;95168.75;514849;28;2077;-68
2023/12/18 00:40:54;;;;;;;22.70;15.23;;;;;;;1.21;71.08;95166.47;515546;28;2055;-68
2023/12/18 00:41:11;;;;;;;21.90;15.18;;;;;;;1.21;70.88;95166.47;515393;28;1874;-68
2023/12/18 00:41:27;;;;;;;23.52;15.93;;;;;;;1.20;70.76;95159.50;515282;28;2588;-68
2023/12/18 00:41:43;;;;;;;24.00;15.93;;;;;;;1.21;71.33;95166.47;515559;28;1845;-68
2023/12/18 00:41:58;;;;;;;21.80;15.35;;;;;;;1.20;70.86;95163.00;515131;28;2360;-68
2023/12/18 00:42:13;;;;;;;22.17;15.50;;;;;;;1.20;70.75;95160.28;514648;28;3034;-68
2023/12/18 00:42:29;;;;;;;24.30;15.33;;;;;;;1.21;71.32;95161.03;513734;28;2084;-68
2023/12/18 00:42:44;;;;;;;23.73;15.43;;;;;;;1.19;70.94;95164.19;515019;28;3387;-68
2023/12/18 00:43:00;;;;;;;22.33;15.17;;;;;;;1.17;70.96;95155.72;514410;28;3247;-68
2023/12/18 00:43:15;;;;;;;23.30;14.57;;;;;;;1.16;70.80;95164.34;514701;28;1862;-68
2023/12/18 00:43:31;;;;;;;20.53;14.23;;;;;;;1.10;70.85;95155.25;514577;28;2679;-68
2023/12/18 00:43:46;;;;;;;20.58;14.85;;;;;;;1.17;71.18;95165.88;515082;28;2625;-68
2023/12/18 00:44:02;;;;;;;24.17;15.50;;;;;;;1.17;71.06;95172.03;514586;28;2354;-68
2023/12/18 00:44:17;;;;;;;22.77;14.35;;;;;;;1.18;71.09;95156.47;514829;28;3367;-68
2023/12/18 00:44:33;;;;;;;21.50;14.10;;;;;;;1.19;71.24;95158.00;514936;28;3337;-68
2023/12/18 00:44:48;;;;;;;21.30;14.45;;;;;;;1.20;71.18;95164.94;515238;28;3174;-68
2023/12/18 00:45:05;;;;;;;21.33;14.00;;;;;;;1.20;71.19;95165.72;515129;28;2974;-68
2023/12/18 00:45:21;;;;;;;22.88;14.32;;;;;;;1.22;71.22;95162.53;514830;28;3136;-68
2023/12/18 00:45:36;;;;;;;21.65;14.35;;;;;;;1.22;71.29;95162.53;515175;28;2688;-68
2023/12/18 00:45:52;;;;;;;20.90;14.00;;;;;;;1.22;71.13;95159.81;514975;28;3228;-68
2023/12/18 00:46:07;;;;;;;19.00;13.85;;;;;;;1.22;71.49;95166.03;515048;28;2361;-68
2023/12/18 00:46:22;;;;;;;18.13;13.97;;;;;;;1.23;71.40;95164.84;514589;28;1679;-68
2023/12/18 00:46:38;;;;;;;19.53;14.30;;;;;;;1.23;71.46;95162.13;514476;28;1854;-68
2023/12/18 00:46:53;;;;;;;19.55;14.02;;;;;;;1.23;71.75;95169.50;514946;28;3267;-68
2023/12/18 00:47:09;;;;;;;22.20;14.97;;;;;;;1.23;71.26;95166.78;515144;28;3407;-68
2023/12/18 00:47:25;;;;;;;23.10;15.27;;;;;;;1.24;71.16;95165.56;514825;28;1990;-68
2023/12/18 00:47:40;;;;;;;23.25;15.90;;;;;;;1.24;71.20;95168.28;515464;28;1525;-68
2023/12/18 00:47:56;;;;;;;22.93;16.03;;;;;;;1.23;71.28;95173.00;515461;28;2390;-68
2023/12/18 00:48:11;;;;;;;20.17;14.77;;;;;;;1.21;71.11;95164.50;515462;28;2072;-68
2023/12/18 00:48:26;;;;;;;22.90;14.87;;;;;;;1.21;71.33;95164.50;515116;28;3282;-68
2023/12/18 00:48:42;;;;;;;23.40;15.63;;;;;;;1.20;71.14;95173.88;515570;28;1859;-68
2023/12/18 00:48:57;;;;;;;22.60;15.97;;;;;;;1.19;71.41;95166.19;515130;28;2697;-68
2023/12/18 00:49:13;;;;;;;22.77;15.90;;;;;;;1.19;71.11;95168.91;513649;28;1863;-68
2023/12/18 00:49:28;;;;;;;22.38;15.75;;;;;;;1.18;70.94;95170.09;515135;28;3136;-68
2023/12/18 00:49:44;;;;;;;23.60;15.13;;;;;;;1.18;70.87;95170.09;515218;28;3803;-68
2023/12/18 00:49:59;;;;;;;22.27;14.60;;;;;;;1.17;71.73;95165.88;515012;28;1886;-69
2023/12/18 00:50:15;;;;;;;19.90;14.33;;;;;;;1.17;71.42;95168.59;514762;28;1965;-68
2023/12/18 00:50:30;;;;;;;20.95;14.40;;;;;;;1.17;71.42;95163.88;515249;28;3105;-68
2023/12/18 00:50:46;;;;;;;22.33;14.33;;;;;;;1.16;71.13;95170.53;514651;28;1816;-68
2023/12/18 00:51:01;;;;;;;21.05;13.80;;;;;;;1.15;71.73;95162.84;515111;28;2882;-68
2023/12/18 00:51:17;;;;;;;21.88;14.02;;;;;;;1.13;71.77;95162.50;514449;28;1785;-68
2023/12/18 00:51:32;;;;;;;21.10;14.37;;;;;;;1.10;71.39;95179.72;515311;28;3227;-68
2023/12/18 00:51:48;;;;;;;19.17;13.35;;;;;;;1.05;71.83;95170.19;514779;28;3111;-68
2023/12/18 00:52:03;;;;;;;18.93;12.70;;;;;;;1.04;71.10;95167.91;514765;28;2072;-68
2023/12/18 00:52:19;;;;;;;19.23;12.93;;;;;;;1.03;71.30;95167.16;514369;28;2025;-68
2023/12/18 00:52:34;;;;;;;18.13;13.07;;;;;;;1.02;71.32;95168.34;515075;28;3101;-68
2023/12/18 00:52:50;;;;;;;19.60;13.03;;;;;;;1.01;71.55;95166.06;514065;28;3839;-68
2023/12/18 00:53:05;;;;;;;20.08;13.45;;;;;;;0.95;71.63;95160.47;514864;28;3032;-68
2023/12/18 00:53:20;;;;;;;18.93;14.33;;;;;;;0.94;71.82;95169.03;514950;28;2329;-68
2023/12/18 00:53:36;;;;;;;18.67;14.15;;;;;;;0.91;71.74;95167.97;514524;28;2235;-68
2023/12/18 00:53:51;;;;;;;18.67;13.57;;;;;;;0.92;72.06;95172.22;515270;28;1906;-69
2023/12/18 00:54:07;;;;;;;19.40;13.40;;;;;;;0.90;71.98;95163.75;514410;28;2273;-68
2023/12/18 00:54:23;;;;;;;20.08;13.52;;;;;;;0.89;71.99;95167.66;515444;28;2640;-68
2023/12/18 00:54:38;;;;;;;21.33;13.87;;;;;;;0.91;72.50;95162.53;514983;28;2997;-68
2023/12/18 00:54:54;;;;;;;22.33;14.52;;;;;;;0.92;71.93;95166.78;515196;28;3394;-69
2023/12/18 00:55:09;;;;;;;21.93;14.83;;;;;;;0.94;71.55;95164.38;514586;28;3902;-68
2023/12/18 00:55:25;;;;;;;20.00;14.37;;;;;;;0.95;71.64;95160.47;514292;28;2937;-68
2023/12/18 00:55:40;;;;;;;21.43;14.40;;;;;;;0.95;72.25;95165.91;514661;28;3779;-68
2023/12/18 00:55:56;;;;;;;24.13;14.37;;;;;;;0.95;71.78;95165.13;514726;28;1681;-69
2023/12/18 00:56:11;;;;;;;22.67;14.15;;;;;;;0.94;71.81;95161.66;514757;28;2862;-68
2023/12/18 00:56:26;;;;;;;21.40;13.80;;;;;;;0.94;72.11;95158.94;514758;28;2102;-69
2023/12/18 00:56:42;;;;;;;21.58;14.35;;;;;;;0.97;71.86;95157.28;515099;28;3067;-69
2023/12/18 00:56:57;;;;;;;18.33;14.00;;;;;;;0.96;71.84;95158.47;514908;28;2035;-68
2023/12/18 00:57:13;;;;;;;17.73;13.38;;;;;;;0.95;71.51;95163.19;515319;28;1813;-69
2023/12/18 00:57:28;;;;;;;18.90;13.47;;;;;;;0.96;71.84;95159.25;514708;28;3039;-69
2023/12/18 00:57:44;;;;;;;19.08;14.07;;;;;;;0.97;71.66;95160.00;514143;28;2632;-69
2023/12/18 00:58:00;;;;;;;19.17;14.43;;;;;;;0.97;71.65;95151.84;513322;28;1840;-68
2023/12/18 00:58:15;;;;;;;19.88;14.10;;;;;;;0.99;71.63;95165.75;513424;28;3433;-69
2023/12/18 00:58:30;;;;;;;19.60;14.27;;;;;;;0.98;71.75;95158.78;513201;28;3154;-69
2023/12/18 00:58:46;;;;;;;19.33;14.07;;;;;;;0.97;71.82;95162.72;513784;28;1898;-69
2023/12/18 00:59:02;;;;;;;19.63;14.00;;;;;;;0.95;71.59;95159.69;513288;28;3402;-69
2023/12/18 00:59:18;;;;;;;19.02;13.82;;;;;;;0.94;72.25;95164.38;513138;28;2121;-68
2023/12/18 00:59:33;;;;;;;20.40;14.07;;;;;;;0.95;72.00;95160.47;513025;28;2088;-69
2023/12/18 00:59:49;;;;;;;22.85;14.57;;;;;;;0.97;72.21;95160.00;513674;28;2962;-69
2023/12/18 01:00:05;;;;;;;22.83;14.47;;;;;;;0.97;71.85;95163.50;512069;28;2613;-69
2023/12/18 01:00:20;;;;;;;21.77;13.73;;;;;;;0.97;71.92;95158.06;512816;28;2103;-68
2023/12/18 01:00:36;;;;;;;20.83;13.32;;;;;;;0.98;71.85;95161.50;512693;28;2108;-68
2023/12/18 01:00:51;;;;;;;18.63;12.93;;;;;;;0.77;71.68;95128.50;513418;28;1884;-68
2023/12/18 01:01:07;;;;;;;17.65;12.20;;;;;;;0.99;71.99;95158.38;512584;28;3273;-68
2023/12/18 01:01:22;;;;;;;16.17;11.80;;;;;;;0.99;71.45;95152.94;513454;28;1887;-68
2023/12/18 01:01:38;;;;;;;16.80;12.25;;;;;;;0.99;71.99;95161.09;513758;28;2251;-68
2023/12/18 01:01:53;;;;;;;18.07;12.63;;;;;;;0.98;71.73;95156.84;514461;28;3095;-68
2023/12/18 01:02:09;;;;;;;16.77;12.73;;;;;;;0.98;71.33;95154.13;513688;28;2409;-68
2023/12/18 01:02:24;;;;;;;18.20;12.90;;;;;;;0.97;71.43;95155.34;515267;28;1623;-68
2023/12/18 01:02:39;;;;;;;18.23;12.70;;;;;;;0.76;71.62;95120.75;514266;28;2737;-68
2023/12/18 01:02:55;;;;;;;17.63;12.97;;;;;;;0.98;72.23;95154.13;515056;28;2897;-68
2023/12/18 01:03:10;;;;;;;19.87;13.67;;;;;;;0.86;71.33;95135.94;513938;28;2936;-68
2023/12/18 01:03:26;;;;;;;18.83;13.30;;;;;;;1.00;72.00;95159.09;514836;28;3079;-68
2023/12/18 01:03:41;;;;;;;19.03;13.17;;;;;;;1.01;71.56;95158.69;514270;28;2479;-68
2023/12/18 01:03:57;;;;;;;20.55;13.13;;;;;;;1.01;71.90;95152.47;515163;28;1936;-68
2023/12/18 01:04:12;;;;;;;19.23;13.27;;;;;;;1.00;71.77;95157.16;514355;28;2945;-68
2023/12/18 01:04:28;;;;;;;18.15;13.38;;;;;;;1.00;71.34;95156.38;515196;28;4121;-68
2023/12/18 01:04:43;;;;;;;19.07;13.80;;;;;;;0.98;72.10;95156.84;514591;28;2863;-68
2023/12/18 01:04:59;;;;;;;19.00;13.75;;;;;;;0.95;71.31;95148.81;515618;28;2036;-68
2023/12/18 01:05:14;;;;;;;16.57;12.67;;;;;;;0.74;71.61;95125.88;514308;28;3884;-68
2023/12/18 01:05:29;;;;;;;18.00;13.18;;;;;;;0.91;71.89;95154.38;515069;28;2695;-68
2023/12/18 01:05:45;;;;;;;18.03;13.80;;;;;;;0.93;71.41;95154.72;514674;28;1863;-68
2023/12/18 01:06:02;;;;;;;17.58;13.57;;;;;;;0.94;72.03;95152.72;515365;28;2004;-68
2023/12/18 01:06:17;;;;;;;19.10;13.10;;;;;;;0.95;72.12;95149.59;514354;28;3423;-68
2023/12/18 01:06:33;;;;;;;19.33;13.23;;;;;;;0.95;71.82;95152.31;515330;28;1792;-68
2023/12/18 01:06:48;;;;;;;18.87;13.37;;;;;;;0.95;71.93;95156.97;514977;28;2419;-68
2023/12/18 01:07:04;;;;;;;19.38;13.20;;;;;;;0.95;71.78;95148.81;515370;28;3947;-68
2023/12/18 01:07:19;;;;;;;19.67;13.63;;;;;;;0.95;72.19;95154.25;514467;28;2013;-68
2023/12/18 01:07:35;;;;;;;17.75;13.27;;;;;;;0.94;71.88;95156.22;515336;28;2449;-68
2023/12/18 01:07:50;;;;;;;18.57;12.97;;;;;;;0.91;71.94;95148.94;514320;28;1760;-68
2023/12/18 01:08:07;;;;;;;20.30;13.57;;;;;;;0.92;71.96;95152.41;515634;28;3037;-68
2023/12/18 01:08:22;;;;;;;20.40;13.90;;;;;;;0.93;72.08;95154.72;514449;28;3061;-68
2023/12/18 01:08:38;;;;;;;19.10;13.63;;;;;;;0.93;71.45;95153.94;515540;28;1725;-68
2023/12/18 01:08:53;;;;;;;19.73;13.45;;;;;;;0.93;71.82;95157.44;514792;28;1851;-68
2023/12/18 01:09:09;;;;;;;19.97;13.80;;;;;;;0.93;72.02;95154.72;515823;28;2994;-68
2023/12/18 01:09:25;;;;;;;19.13;13.85;;;;;;;0.93;71.46;95146.56;514431;28;3224;-68
2023/12/18 01:09:41;;;;;;;21.38;13.90;;;;;;;0.94;72.33;95150.00;515605;28;3926;-68
2023/12/18 01:09:58;;;;;;;21.17;13.73;;;;;;;0.93;71.99;95149.28;515650;28;1971;-68
2023/12/18 01:10:14;;;;;;;21.58;14.10;;;;;;;0.95;72.39;95152.31;514811;28;1989;-68
2023/12/18 01:10:29;;;;;;;19.97;13.83;;;;;;;0.94;72.50;95150.78;513190;28;2439;-68
2023/12/18 01:10:45;;;;;;;17.30;12.57;;;;;;;0.94;72.16;95152.72;513989;28;2467;-68
2023/12/18 01:11:00;;;;;;;18.03;12.80;;;;;;;0.93;72.19;95143.06;513138;28;2074;-68
2023/12/18 01:11:16;;;;;;;18.63;13.57;;;;;;;0.93;72.13;95152.00;513533;28;1832;-68
2023/12/18 01:11:31;;;;;;;18.07;13.33;;;;;;;0.93;72.34;95149.28;513238;28;2171;-68
2023/12/18 01:11:46;;;;;;;18.85;13.13;;;;;;;0.93;72.22;95145.78;513821;28;3394;-68
2023/12/18 01:12:02;;;;;;;19.13;13.33;;;;;;;0.90;71.78;95144.72;513344;28;1883;-68
2023/12/18 01:12:17;;;;;;;20.65;13.93;;;;;;;0.90;72.16;95150.16;513384;28;1858;-68
2023/12/18 01:12:33;;;;;;;19.80;13.63;;;;;;;0.89;72.16;95151.34;512810;28;3615;-68
2023/12/18 01:12:48;;;;;;;17.00;12.93;;;;;;;0.91;72.49;95153.63;513603;28;3111;-68
2023/12/18 01:13:04;;;;;;;18.33;13.87;;;;;;;0.90;72.02;95149.38;512685;28;2018;-68
2023/12/18 01:13:19;;;;;;;18.90;13.77;;;;;;;0.90;71.96;95154.81;512788;28;2928;-68
2023/12/18 01:13:35;;;;;;;18.80;13.27;;;;;;;0.91;71.68;95150.91;512498;28;2177;-68
2023/12/18 01:13:50;;;;;;;17.30;13.02;;;;;;;0.91;71.82;95151.66;513656;28;2194;-68
2023/12/18 01:14:09;;;;;;;17.83;12.93;;;;;;;0.92;72.09;95144.25;513541;28;2457;-68